createdAt,value
2018-07-04T00:00:49.405Z,0
2018-07-04T00:01:51.392Z,0
2018-07-04T00:02:53.675Z,0
2018-07-04T00:03:55.713Z,0
2018-07-04T00:04:57.711Z,0
2018-07-04T00:05:59.993Z,0
2018-07-04T00:07:01.989Z,0
2018-07-04T00:08:04.053Z,0
2018-07-04T00:09:06.063Z,0
2018-07-04T00:10:08.048Z,0
2018-07-04T00:11:10.336Z,0
2018-07-04T00:12:12.328Z,0
2018-07-04T00:13:14.324Z,0
2018-07-04T00:14:16.605Z,0
2018-07-04T00:15:18.978Z,0
2018-07-04T00:16:20.982Z,0
2018-07-04T00:17:22.983Z,0
2018-07-04T00:18:24.987Z,0
2018-07-04T00:19:26.989Z,0
2018-07-04T00:20:29.059Z,0
2018-07-04T00:21:31.052Z,0
2018-07-04T00:22:33.039Z,0
2018-07-04T00:23:35.036Z,0
2018-07-04T00:24:37.048Z,0
2018-07-04T00:25:39.080Z,0
2018-07-04T00:26:41.031Z,0
2018-07-04T00:27:43.037Z,0
2018-07-04T00:28:45.026Z,0
2018-07-04T00:29:47.296Z,0
2018-07-04T00:30:49.289Z,0
2018-07-04T00:31:51.568Z,0
2018-07-04T00:32:53.851Z,0
2018-07-04T00:33:55.843Z,0
2018-07-04T00:34:57.849Z,0
2018-07-04T00:36:00.283Z,0
2018-07-04T00:37:02.218Z,0
2018-07-04T00:38:04.233Z,0
2018-07-04T00:39:06.225Z,0
2018-07-04T00:40:08.219Z,0
2018-07-04T00:41:10.217Z,0
2018-07-04T00:42:12.207Z,0
2018-07-04T00:43:14.219Z,0
2018-07-04T00:44:16.200Z,0
2018-07-04T00:45:18.197Z,0
2018-07-04T00:46:20.190Z,0
2018-07-04T00:47:22.195Z,0
2018-07-04T00:48:24.192Z,0
2018-07-04T00:49:26.199Z,0
2018-07-04T00:50:28.179Z,0
2018-07-04T00:51:30.177Z,0
2018-07-04T00:52:32.173Z,0
2018-07-04T00:53:34.168Z,0
2018-07-04T00:54:36.171Z,0
2018-07-04T00:55:38.171Z,0
2018-07-04T00:56:40.161Z,0
2018-07-04T00:57:42.163Z,0
2018-07-04T00:58:44.148Z,0
2018-07-04T00:59:46.146Z,0
2018-07-04T01:00:48.138Z,0
2018-07-04T01:01:50.126Z,0
2018-07-04T01:02:52.412Z,0
2018-07-04T01:03:54.414Z,0
2018-07-04T01:04:56.414Z,0
2018-07-04T01:05:58.400Z,0
2018-07-04T01:07:00.389Z,0
2018-07-04T01:08:02.392Z,0
2018-07-04T01:09:04.381Z,0
2018-07-04T01:10:07.070Z,0
2018-07-04T01:11:09.071Z,0
2018-07-04T01:12:11.067Z,0
2018-07-04T01:13:13.715Z,0
2018-07-04T01:14:15.709Z,0
2018-07-04T01:15:17.709Z,0
2018-07-04T01:16:19.699Z,0
2018-07-04T01:17:21.685Z,0
2018-07-04T01:18:23.681Z,0
2018-07-04T01:19:25.973Z,0
2018-07-04T01:20:27.961Z,0
2018-07-04T01:21:29.961Z,0
2018-07-04T01:22:31.946Z,0
2018-07-04T01:23:33.954Z,0
2018-07-04T01:24:36.229Z,0
2018-07-04T01:25:38.227Z,0
2018-07-04T01:26:40.228Z,0
2018-07-04T01:27:42.220Z,0
2018-07-04T01:28:44.217Z,0
2018-07-04T01:29:46.506Z,0
2018-07-04T01:30:48.873Z,0
2018-07-04T01:31:50.878Z,0
2018-07-04T01:32:52.867Z,0
2018-07-04T01:33:55.163Z,0
2018-07-04T01:34:57.167Z,0
2018-07-04T01:35:59.156Z,0
2018-07-04T01:37:01.162Z,0
2018-07-04T01:38:03.156Z,0
2018-07-04T01:39:05.148Z,0
2018-07-04T01:40:07.163Z,0
2018-07-04T01:41:09.195Z,0
2018-07-04T01:42:11.194Z,0
2018-07-04T01:43:13.477Z,0
2018-07-04T01:44:15.470Z,0
2018-07-04T01:45:18.119Z,0
2018-07-04T01:46:20.123Z,0
2018-07-04T01:47:22.126Z,0
2018-07-04T01:48:24.168Z,0
2018-07-04T01:49:26.203Z,0
2018-07-04T01:50:28.244Z,0
2018-07-04T01:51:30.287Z,0
2018-07-04T01:52:32.321Z,0
2018-07-04T01:53:34.667Z,0
2018-07-04T01:54:36.707Z,0
2018-07-04T01:55:39.031Z,0
2018-07-04T01:56:41.461Z,0
2018-07-04T01:57:43.480Z,0
2018-07-04T01:58:45.524Z,0
2018-07-04T01:59:47.558Z,4
2018-07-04T02:00:49.592Z,4
2018-07-04T02:01:51.623Z,4
2018-07-04T02:02:53.661Z,0
2018-07-04T02:03:55.708Z,0
2018-07-04T02:04:58.136Z,4
2018-07-04T02:06:00.167Z,4
2018-07-04T02:07:02.200Z,4
2018-07-04T02:08:04.237Z,0
2018-07-04T02:09:06.277Z,4
2018-07-04T02:10:08.307Z,4
2018-07-04T02:11:10.349Z,4
2018-07-04T02:12:12.669Z,8
2018-07-04T02:13:14.692Z,8
2018-07-04T02:14:17.027Z,8
2018-07-04T02:15:19.064Z,8
2018-07-04T02:16:21.100Z,12
2018-07-04T02:17:23.131Z,12
2018-07-04T02:18:25.445Z,12
2018-07-04T02:19:27.484Z,16
2018-07-04T02:20:29.512Z,16
2018-07-04T02:21:31.854Z,20
2018-07-04T02:22:33.902Z,20
2018-07-04T02:23:36.232Z,24
2018-07-04T02:24:38.258Z,28
2018-07-04T02:25:40.292Z,28
2018-07-04T02:26:42.323Z,32
2018-07-04T02:27:44.358Z,36
2018-07-04T02:28:46.695Z,44
2018-07-04T02:29:48.740Z,48
2018-07-04T02:30:50.784Z,52
2018-07-04T02:31:52.803Z,60
2018-07-04T02:32:54.846Z,68
2018-07-04T02:33:56.885Z,76
2018-07-04T02:34:59.214Z,84
2018-07-04T02:36:01.555Z,92
2018-07-04T02:37:04.156Z,100
2018-07-04T02:38:06.201Z,112
2018-07-04T02:39:08.539Z,120
2018-07-04T02:40:10.571Z,132
2018-07-04T02:41:12.611Z,148
2018-07-04T02:42:14.944Z,160
2018-07-04T02:43:16.978Z,176
2018-07-04T02:44:19.015Z,188
2018-07-04T02:45:21.057Z,208
2018-07-04T02:46:23.404Z,224
2018-07-04T02:47:25.426Z,240
2018-07-04T02:48:27.780Z,260
2018-07-04T02:49:29.810Z,284
2018-07-04T02:50:31.902Z,304
2018-07-04T02:51:33.947Z,324
2018-07-04T02:52:36.565Z,348
2018-07-04T02:53:38.604Z,372
2018-07-04T02:54:40.653Z,400
2018-07-04T02:55:42.674Z,428
2018-07-04T02:56:45.031Z,452
2018-07-04T02:57:47.386Z,480
2018-07-04T02:58:49.706Z,508
2018-07-04T02:59:52.042Z,540
2018-07-04T03:00:54.081Z,572
2018-07-04T03:01:56.514Z,600
2018-07-04T03:02:58.833Z,632
2018-07-04T03:04:00.868Z,668
2018-07-04T03:05:03.198Z,696
2018-07-04T03:06:05.229Z,732
2018-07-04T03:07:07.269Z,768
2018-07-04T03:08:09.301Z,800
2018-07-04T03:09:11.332Z,836
2018-07-04T03:10:13.669Z,872
2018-07-04T03:11:16.084Z,908
2018-07-04T03:12:19.095Z,944
2018-07-04T03:13:21.416Z,984
2018-07-04T03:14:23.454Z,1024
2018-07-04T03:15:25.793Z,1060
2018-07-04T03:16:28.411Z,1096
2018-07-04T03:17:30.733Z,1136
2018-07-04T03:18:33.478Z,1176
2018-07-04T03:19:36.453Z,1212
2018-07-04T03:20:38.771Z,1248
2018-07-04T03:21:41.420Z,1288
2018-07-04T03:22:43.464Z,1324
2018-07-04T03:23:45.793Z,1364
2018-07-04T03:24:47.826Z,1400
2018-07-04T03:25:50.158Z,1440
2018-07-04T03:26:52.492Z,1472
2018-07-04T03:27:54.523Z,1512
2018-07-04T03:28:56.580Z,1544
2018-07-04T03:29:58.619Z,1580
2018-07-04T03:31:01.032Z,1620
2018-07-04T03:32:03.357Z,1656
2018-07-04T03:33:05.421Z,1696
2018-07-04T03:34:07.421Z,1736
2018-07-04T03:35:09.462Z,1772
2018-07-04T03:36:11.502Z,1808
2018-07-04T03:37:13.543Z,1844
2018-07-04T03:38:15.576Z,1876
2018-07-04T03:39:17.617Z,1912
2018-07-04T03:40:19.652Z,1944
2018-07-04T03:41:21.689Z,1980
2018-07-04T03:42:23.735Z,2012
2018-07-04T03:43:26.319Z,2048
2018-07-04T03:44:28.360Z,2076
2018-07-04T03:45:30.399Z,2112
2018-07-04T03:46:32.428Z,2144
2018-07-04T03:47:34.469Z,2176
2018-07-04T03:48:36.789Z,2208
2018-07-04T03:49:38.836Z,2240
2018-07-04T03:50:40.866Z,2268
2018-07-04T03:51:42.901Z,2300
2018-07-04T03:52:44.944Z,2328
2018-07-04T03:53:46.979Z,2360
2018-07-04T03:54:49.289Z,2388
2018-07-04T03:55:51.331Z,2412
2018-07-04T03:56:53.367Z,2440
2018-07-04T03:57:55.402Z,2472
2018-07-04T03:58:57.433Z,2496
2018-07-04T03:59:59.464Z,2520
2018-07-04T04:01:01.891Z,2548
2018-07-04T04:02:04.307Z,2576
2018-07-04T04:03:06.340Z,2604
2018-07-04T04:04:08.384Z,2624
2018-07-04T04:05:10.417Z,2652
2018-07-04T04:06:12.748Z,2676
2018-07-04T04:07:15.205Z,2700
2018-07-04T04:08:17.208Z,2724
2018-07-04T04:09:19.254Z,2748
2018-07-04T04:10:21.295Z,2776
2018-07-04T04:11:23.328Z,2796
2018-07-04T04:12:25.361Z,2816
2018-07-04T04:13:27.399Z,2840
2018-07-04T04:14:29.748Z,2864
2018-07-04T04:15:32.067Z,2884
2018-07-04T04:16:34.120Z,2904
2018-07-04T04:17:36.157Z,2924
2018-07-04T04:18:38.184Z,2948
2018-07-04T04:19:40.222Z,2972
2018-07-04T04:20:42.255Z,2992
2018-07-04T04:21:44.291Z,3012
2018-07-04T04:22:46.319Z,3032
2018-07-04T04:23:48.367Z,3056
2018-07-04T04:24:50.974Z,3072
2018-07-04T04:25:53.001Z,3096
2018-07-04T04:26:55.045Z,3116
2018-07-04T04:27:57.090Z,3136
2018-07-04T04:28:59.408Z,3156
2018-07-04T04:30:01.841Z,3168
2018-07-04T04:31:04.162Z,3188
2018-07-04T04:32:06.205Z,3208
2018-07-04T04:33:08.247Z,3224
2018-07-04T04:34:10.279Z,3240
2018-07-04T04:35:12.304Z,3256
2018-07-04T04:36:14.346Z,3276
2018-07-04T04:37:16.381Z,3292
2018-07-04T04:38:18.416Z,3308
2018-07-04T04:39:20.450Z,3324
2018-07-04T04:40:22.515Z,3336
2018-07-04T04:41:24.838Z,3352
2018-07-04T04:42:26.877Z,3368
2018-07-04T04:43:28.890Z,3384
2018-07-04T04:44:30.941Z,3404
2018-07-04T04:45:33.261Z,3420
2018-07-04T04:46:35.298Z,3436
2018-07-04T04:47:37.632Z,3456
2018-07-04T04:48:39.673Z,3472
2018-07-04T04:49:41.710Z,3488
2018-07-04T04:50:44.019Z,3508
2018-07-04T04:51:46.066Z,3524
2018-07-04T04:52:48.101Z,3540
2018-07-04T04:53:50.422Z,3552
2018-07-04T04:54:52.500Z,3572
2018-07-04T04:55:54.508Z,3592
2018-07-04T04:56:56.545Z,3604
2018-07-04T04:57:58.592Z,3620
2018-07-04T04:59:00.625Z,3640
2018-07-04T05:00:03.333Z,3652
2018-07-04T05:01:05.366Z,3668
2018-07-04T05:02:07.402Z,3688
2018-07-04T05:03:09.443Z,3704
2018-07-04T05:04:11.483Z,3724
2018-07-04T05:05:16.798Z,3744
2018-07-04T05:06:18.818Z,3760
2018-07-04T05:07:20.832Z,3772
2018-07-04T05:08:22.837Z,3792
2018-07-04T05:09:24.859Z,3804
2018-07-04T05:10:26.893Z,3824
2018-07-04T05:11:28.883Z,3832
2018-07-04T05:12:31.171Z,3852
2018-07-04T05:13:33.167Z,3880
2018-07-04T05:14:35.158Z,3888
2018-07-04T05:15:37.446Z,3908
2018-07-04T05:16:39.456Z,3920
2018-07-04T05:17:41.483Z,3932
2018-07-04T05:18:43.491Z,3948
2018-07-04T05:19:46.903Z,3964
2018-07-04T05:20:48.901Z,3972
2018-07-04T05:21:52.958Z,3992
2018-07-04T05:22:54.994Z,4000
2018-07-04T05:23:57.601Z,4012
2018-07-04T05:24:59.645Z,4028
2018-07-04T05:26:01.685Z,4040
2018-07-04T05:27:04.108Z,4060
2018-07-04T05:28:06.152Z,4072
2018-07-04T05:29:08.203Z,4088
2018-07-04T05:30:10.242Z,4092
2018-07-04T05:31:12.283Z,4100
2018-07-04T05:32:14.318Z,4100
2018-07-04T05:33:16.362Z,4116
2018-07-04T05:34:18.668Z,4132
2018-07-04T05:35:21.012Z,4152
2018-07-04T05:36:23.052Z,4164
2018-07-04T05:37:25.092Z,4180
2018-07-04T05:38:27.121Z,4192
2018-07-04T05:39:29.159Z,4204
2018-07-04T05:40:31.198Z,4212
2018-07-04T05:41:33.231Z,4224
2018-07-04T05:42:35.262Z,4232
2018-07-04T05:43:37.308Z,4244
2018-07-04T05:44:39.342Z,4252
2018-07-04T05:45:41.380Z,4256
2018-07-04T05:46:43.673Z,4272
2018-07-04T05:47:45.463Z,4292
2018-07-04T05:48:47.821Z,4304
2018-07-04T05:49:50.432Z,4328
2018-07-04T05:50:52.469Z,4344
2018-07-04T05:51:54.511Z,4356
2018-07-04T05:52:56.549Z,4372
2018-07-04T05:53:58.586Z,4388
2018-07-04T05:55:00.629Z,4392
2018-07-04T05:56:02.654Z,4408
2018-07-04T05:57:04.978Z,4412
2018-07-04T05:58:07.319Z,4432
2018-07-04T05:59:09.353Z,4440
2018-07-04T06:00:11.789Z,4448
2018-07-04T06:01:14.415Z,4456
2018-07-04T06:02:16.461Z,4468
2018-07-04T06:03:18.498Z,4484
2018-07-04T06:04:20.540Z,4496
2018-07-04T06:05:22.876Z,4512
2018-07-04T06:06:25.229Z,4540
2018-07-04T06:07:27.273Z,4560
2018-07-04T06:08:29.315Z,4588
2018-07-04T06:09:31.355Z,4612
2018-07-04T06:10:33.398Z,4644
2018-07-04T06:11:35.723Z,4664
2018-07-04T06:12:37.767Z,4672
2018-07-04T06:13:39.811Z,4696
2018-07-04T06:14:41.851Z,4716
2018-07-04T06:15:44.181Z,4724
2018-07-04T06:16:46.229Z,4732
2018-07-04T06:17:48.275Z,4732
2018-07-04T06:18:50.317Z,4740
2018-07-04T06:19:52.355Z,4756
2018-07-04T06:20:54.398Z,4768
2018-07-04T06:21:56.430Z,4780
2018-07-04T06:22:58.462Z,4792
2018-07-04T06:24:00.526Z,4812
2018-07-04T06:25:02.556Z,4832
2018-07-04T06:26:04.988Z,4844
2018-07-04T06:27:07.319Z,4860
2018-07-04T06:28:09.357Z,4864
2018-07-04T06:29:11.419Z,4880
2018-07-04T06:30:13.454Z,4896
2018-07-04T06:31:15.484Z,4912
2018-07-04T06:32:17.537Z,4920
2018-07-04T06:33:19.894Z,4932
2018-07-04T06:34:21.936Z,4940
2018-07-04T06:35:23.973Z,4948
2018-07-04T06:36:26.310Z,4952
2018-07-04T06:37:28.353Z,4968
2018-07-04T06:38:30.391Z,4992
2018-07-04T06:39:32.438Z,5020
2018-07-04T06:40:34.488Z,5044
2018-07-04T06:41:36.531Z,5088
2018-07-04T06:42:38.576Z,5128
2018-07-04T06:43:41.196Z,5196
2018-07-04T06:44:43.244Z,5268
2018-07-04T06:45:45.573Z,5332
2018-07-04T06:46:47.892Z,5372
2018-07-04T06:47:49.945Z,5408
2018-07-04T06:48:52.321Z,5448
2018-07-04T06:49:54.300Z,5484
2018-07-04T06:50:56.349Z,5508
2018-07-04T06:51:58.387Z,5544
2018-07-04T06:53:00.433Z,5580
2018-07-04T06:54:02.483Z,5628
2018-07-04T06:55:04.533Z,5672
2018-07-04T06:56:06.966Z,5724
2018-07-04T06:57:08.995Z,5752
2018-07-04T06:58:11.330Z,5784
2018-07-04T06:59:13.388Z,5792
2018-07-04T07:00:15.707Z,5816
2018-07-04T07:01:18.153Z,5848
2018-07-04T07:02:20.490Z,5876
2018-07-04T07:03:22.525Z,5904
2018-07-04T07:04:24.587Z,5924
2018-07-04T07:05:26.628Z,5964
2018-07-04T07:06:28.670Z,5992
2018-07-04T07:07:30.712Z,6016
2018-07-04T07:08:32.813Z,6032
2018-07-04T07:09:34.807Z,6032
2018-07-04T07:10:36.861Z,6052
2018-07-04T07:11:38.899Z,6088
2018-07-04T07:12:40.937Z,6116
2018-07-04T07:13:42.975Z,6112
2018-07-04T07:14:45.022Z,6112
2018-07-04T07:15:47.071Z,6144
2018-07-04T07:16:49.121Z,6172
2018-07-04T07:17:51.449Z,6192
2018-07-04T07:18:53.783Z,6208
2018-07-04T07:19:55.816Z,6248
2018-07-04T07:20:58.176Z,6292
2018-07-04T07:22:00.218Z,6320
2018-07-04T07:23:02.664Z,6344
2018-07-04T07:24:04.706Z,6376
2018-07-04T07:25:06.757Z,6416
2018-07-04T07:26:09.464Z,6456
2018-07-04T07:27:11.509Z,6500
2018-07-04T07:28:13.840Z,6552
2018-07-04T07:29:15.889Z,6584
2018-07-04T07:30:17.928Z,6612
2018-07-04T07:31:19.982Z,6656
2018-07-04T07:32:22.022Z,6688
2018-07-04T07:33:24.375Z,6712
2018-07-04T07:34:26.476Z,6724
2018-07-04T07:35:28.751Z,6760
2018-07-04T07:36:30.795Z,6780
2018-07-04T07:37:33.220Z,6772
2018-07-04T07:38:35.646Z,6780
2018-07-04T07:39:37.695Z,6784
2018-07-04T07:40:39.739Z,6804
2018-07-04T07:41:41.777Z,6824
2018-07-04T07:42:43.834Z,6832
2018-07-04T07:43:45.880Z,6848
2018-07-04T07:44:48.222Z,6876
2018-07-04T07:45:50.273Z,6900
2018-07-04T07:46:52.306Z,6924
2018-07-04T07:47:54.362Z,6960
2018-07-04T07:48:56.407Z,6988
2018-07-04T07:49:58.447Z,7036
2018-07-04T07:51:00.500Z,7060
2018-07-04T07:52:02.557Z,7088
2018-07-04T07:53:04.607Z,7112
2018-07-04T07:54:07.138Z,7164
2018-07-04T07:55:09.503Z,7200
2018-07-04T07:56:11.557Z,7240
2018-07-04T07:57:13.605Z,7272
2018-07-04T07:58:15.656Z,7304
2018-07-04T07:59:17.699Z,7352
2018-07-04T08:00:19.753Z,7368
2018-07-04T08:01:22.068Z,7384
2018-07-04T08:02:24.120Z,7396
2018-07-04T08:03:26.169Z,7436
2018-07-04T08:04:28.215Z,7456
2018-07-04T08:05:30.258Z,7500
2018-07-04T08:06:32.293Z,7540
2018-07-04T08:07:34.342Z,7568
2018-07-04T08:08:36.392Z,7600
2018-07-04T08:09:38.433Z,7660
2018-07-04T08:10:40.770Z,7684
2018-07-04T08:11:43.382Z,7664
2018-07-04T08:12:45.864Z,7672
2018-07-04T08:13:48.167Z,7680
2018-07-04T08:14:50.213Z,7700
2018-07-04T08:15:52.276Z,7744
2018-07-04T08:16:54.321Z,7816
2018-07-04T08:17:56.649Z,7872
2018-07-04T08:18:58.688Z,7916
2018-07-04T08:20:00.747Z,7992
2018-07-04T08:21:03.099Z,8012
2018-07-04T08:22:05.428Z,8040
2018-07-04T08:23:07.866Z,8100
2018-07-04T08:24:09.909Z,8132
2018-07-04T08:25:11.953Z,8120
2018-07-04T08:26:14.061Z,8184
2018-07-04T08:27:16.349Z,8232
2018-07-04T08:28:18.410Z,8272
2018-07-04T08:29:20.450Z,8316
2018-07-04T08:30:22.787Z,8380
2018-07-04T08:31:25.216Z,8412
2018-07-04T08:32:27.264Z,8412
2018-07-04T08:33:29.365Z,8576
2018-07-04T08:34:31.363Z,13584
2018-07-04T08:35:33.406Z,19608
2018-07-04T08:36:35.454Z,15820
2018-07-04T08:37:37.492Z,16772
2018-07-04T08:38:39.540Z,23136
2018-07-04T08:39:41.592Z,23648
2018-07-04T08:40:43.634Z,32448
2018-07-04T08:41:45.670Z,29760
2018-07-04T08:42:47.718Z,33920
2018-07-04T08:43:50.053Z,31584
2018-07-04T08:44:52.393Z,30880
2018-07-04T08:45:54.431Z,32480
2018-07-04T08:46:56.511Z,29984
2018-07-04T08:47:58.534Z,31488
2018-07-04T08:49:00.572Z,67904
2018-07-04T08:50:02.613Z,98944
2018-07-04T08:51:04.961Z,91872
2018-07-04T08:52:07.011Z,82976
2018-07-04T08:53:09.063Z,83552
2018-07-04T08:54:11.102Z,89440
2018-07-04T08:55:13.148Z,93024
2018-07-04T08:56:15.199Z,88960
2018-07-04T08:57:17.540Z,76832
2018-07-04T08:58:19.644Z,75680
2018-07-04T08:59:22.484Z,84320
2018-07-04T09:00:24.539Z,90976
2018-07-04T09:01:26.979Z,96768
2018-07-04T09:02:29.333Z,94464
2018-07-04T09:03:31.387Z,86976
2018-07-04T09:04:34.010Z,87232
2018-07-04T09:05:36.400Z,87872
2018-07-04T09:06:38.734Z,86432
2018-07-04T09:07:40.788Z,88416
2018-07-04T09:08:43.110Z,93024
2018-07-04T09:09:45.160Z,86080
2018-07-04T09:10:47.204Z,81792
2018-07-04T09:11:49.306Z,89344
2018-07-04T09:12:51.303Z,90400
2018-07-04T09:13:53.630Z,85568
2018-07-04T09:14:55.956Z,89248
2018-07-04T09:15:58.005Z,93120
2018-07-04T09:17:00.048Z,95840
2018-07-04T09:18:02.095Z,97056
2018-07-04T09:19:04.149Z,94432
2018-07-04T09:20:06.501Z,90976
2018-07-04T09:21:08.554Z,92064
2018-07-04T09:22:10.597Z,94688
2018-07-04T09:23:12.645Z,91616
2018-07-04T09:24:15.094Z,93664
2018-07-04T09:25:17.532Z,98080
2018-07-04T09:26:19.585Z,100352
2018-07-04T09:27:21.634Z,100064
2018-07-04T09:28:23.679Z,100448
2018-07-04T09:29:26.025Z,99072
2018-07-04T09:30:28.745Z,93344
2018-07-04T09:31:30.805Z,96096
2018-07-04T09:32:33.210Z,95200
2018-07-04T09:33:35.961Z,94336
2018-07-04T09:34:38.326Z,97216
2018-07-04T09:35:40.370Z,97216
2018-07-04T09:36:42.419Z,94592
2018-07-04T09:37:44.854Z,91392
2018-07-04T09:38:46.910Z,98784
2018-07-04T09:39:49.247Z,108832
2018-07-04T09:40:51.311Z,104096
2018-07-04T09:41:53.365Z,93952
2018-07-04T09:42:55.400Z,94752
2018-07-04T09:43:57.556Z,101024
2018-07-04T09:44:59.518Z,102816
2018-07-04T09:46:01.572Z,100608
2018-07-04T09:47:03.617Z,106656
2018-07-04T09:48:05.671Z,116960
2018-07-04T09:49:08.019Z,107200
2018-07-04T09:50:10.344Z,104640
2018-07-04T09:51:12.676Z,116960
2018-07-04T09:52:15.028Z,109728
2018-07-04T09:53:17.463Z,100896
2018-07-04T09:54:19.526Z,107680
2018-07-04T09:55:21.570Z,122464
2018-07-04T09:56:23.912Z,128864
2018-07-04T09:57:25.956Z,119744
2018-07-04T09:58:28.398Z,114944
2018-07-04T09:59:30.455Z,111040
2018-07-04T10:00:32.512Z,114592
2018-07-04T10:01:34.555Z,124608
2018-07-04T10:02:36.607Z,120768
2018-07-04T10:03:38.663Z,112096
2018-07-04T10:04:40.717Z,109728
2018-07-04T10:05:42.801Z,115040
2018-07-04T10:06:44.835Z,120768
2018-07-04T10:07:47.171Z,115712
2018-07-04T10:08:49.223Z,105728
2018-07-04T10:09:51.274Z,109856
2018-07-04T10:10:53.330Z,129024
2018-07-04T10:11:55.394Z,130592
2018-07-04T10:12:57.438Z,122336
2018-07-04T10:13:59.787Z,122592
2018-07-04T10:15:01.843Z,118336
2018-07-04T10:16:03.885Z,112736
2018-07-04T10:17:05.950Z,107008
2018-07-04T10:18:07.997Z,114208
2018-07-04T10:19:10.442Z,119904
2018-07-04T10:20:12.878Z,118272
2018-07-04T10:21:14.925Z,117728
2018-07-04T10:22:16.989Z,123328
2018-07-04T10:23:19.307Z,133792
2018-07-04T10:24:21.360Z,133280
2018-07-04T10:25:23.721Z,123328
2018-07-04T10:26:26.062Z,125120
2018-07-04T10:27:28.117Z,130624
2018-07-04T10:28:30.455Z,121728
2018-07-04T10:29:32.511Z,115776
2018-07-04T10:30:34.971Z,116928
2018-07-04T10:31:37.302Z,115680
2018-07-04T10:32:39.359Z,123264
2018-07-04T10:33:41.408Z,126816
2018-07-04T10:34:43.467Z,116320
2018-07-04T10:35:45.520Z,103552
2018-07-04T10:36:47.964Z,112608
2018-07-04T10:37:50.025Z,118080
2018-07-04T10:38:52.088Z,116800
2018-07-04T10:39:54.138Z,118784
2018-07-04T10:40:56.196Z,117344
2018-07-04T10:41:58.570Z,117088
2018-07-04T10:43:00.765Z,120544
2018-07-04T10:44:02.815Z,118176
2018-07-04T10:45:05.167Z,116672
2018-07-04T10:46:07.504Z,117536
2018-07-04T10:47:09.567Z,120960
2018-07-04T10:48:11.626Z,122464
2018-07-04T10:49:13.683Z,124384
2018-07-04T10:50:15.742Z,122272
2018-07-04T10:51:17.796Z,119264
2018-07-04T10:52:19.847Z,115872
2018-07-04T10:53:21.906Z,118528
2018-07-04T10:54:23.971Z,120928
2018-07-04T10:55:26.020Z,123872
2018-07-04T10:56:28.074Z,123808
2018-07-04T10:57:30.140Z,121120
2018-07-04T10:58:32.258Z,117984
2018-07-04T10:59:34.266Z,118880
2018-07-04T11:00:36.611Z,124832
2018-07-04T11:01:38.665Z,127072
2018-07-04T11:02:40.719Z,125216
2018-07-04T11:03:42.769Z,123616
2018-07-04T11:04:44.822Z,125536
2018-07-04T11:05:46.896Z,120608
2018-07-04T11:06:48.948Z,116704
2018-07-04T11:07:51.377Z,118176
2018-07-04T11:08:54.320Z,121376
2018-07-04T11:09:56.423Z,126688
2018-07-04T11:10:58.462Z,132800
2018-07-04T11:12:00.518Z,133824
2018-07-04T11:13:02.597Z,129632
2018-07-04T11:14:04.976Z,127296
2018-07-04T11:15:07.032Z,124832
2018-07-04T11:16:09.088Z,129184
2018-07-04T11:17:11.206Z,132992
2018-07-04T11:18:13.748Z,125248
2018-07-04T11:19:15.808Z,129696
2018-07-04T11:20:18.106Z,141056
2018-07-04T11:21:20.162Z,142752
2018-07-04T11:22:22.716Z,145472
2018-07-04T11:23:25.160Z,146816
2018-07-04T11:24:27.644Z,137888
2018-07-04T11:25:29.783Z,133408
2018-07-04T11:26:31.951Z,136832
2018-07-04T11:27:34.088Z,137408
2018-07-04T11:28:36.215Z,135424
2018-07-04T11:29:38.579Z,128960
2018-07-04T11:30:40.741Z,134304
2018-07-04T11:31:43.248Z,148960
2018-07-04T11:32:45.404Z,143488
2018-07-04T11:33:47.515Z,136416
2018-07-04T11:34:49.716Z,142752
2018-07-04T11:35:51.841Z,145344
2018-07-04T11:36:54.243Z,133792
2018-07-04T11:37:56.450Z,125664
2018-07-04T11:38:59.646Z,131872
2018-07-04T11:40:01.782Z,134816
2018-07-04T11:41:04.285Z,143584
2018-07-04T11:42:06.489Z,154720
2018-07-04T11:43:08.737Z,151264
2018-07-04T11:44:11.279Z,133760
2018-07-04T11:45:13.385Z,132800
2018-07-04T11:46:16.599Z,130208
2018-07-04T11:47:19.349Z,115360
2018-07-04T11:48:21.437Z,105984
2018-07-04T11:49:23.582Z,108608
2018-07-04T11:50:25.951Z,118144
2018-07-04T11:51:28.350Z,122528
2018-07-04T11:52:30.920Z,112672
2018-07-04T11:53:33.033Z,106048
2018-07-04T11:54:35.379Z,114816
2018-07-04T11:55:38.297Z,126912
2018-07-04T11:56:41.879Z,131168
2018-07-04T11:57:44.360Z,122976
2018-07-04T11:58:47.249Z,115776
2018-07-04T11:59:50.127Z,117024
2018-07-04T12:00:52.919Z,124320
2018-07-04T12:01:55.747Z,127200
2018-07-04T12:02:58.734Z,124192
2018-07-04T12:04:01.488Z,113952
2018-07-04T12:05:04.207Z,106912
2018-07-04T12:06:07.483Z,110432
2018-07-04T12:07:09.636Z,120544
2018-07-04T12:08:13.155Z,130080
2018-07-04T12:09:16.004Z,130656
2018-07-04T12:10:19.039Z,124000
2018-07-04T12:11:21.411Z,123264
2018-07-04T12:12:24.351Z,121696
2018-07-04T12:13:27.334Z,120832
2018-07-04T12:14:29.811Z,119424
2018-07-04T12:15:32.068Z,120352
2018-07-04T12:16:35.663Z,110112
2018-07-04T12:17:38.536Z,95552
2018-07-04T12:18:41.125Z,97248
2018-07-04T12:19:43.622Z,109056
2018-07-04T12:20:47.129Z,121344
2018-07-04T12:21:49.644Z,121824
2018-07-04T12:22:52.705Z,113920
2018-07-04T12:23:55.967Z,106688
2018-07-04T12:24:58.345Z,113984
2018-07-04T12:26:01.165Z,119744
2018-07-04T12:27:03.394Z,117952
2018-07-04T12:28:05.933Z,112960
2018-07-04T12:29:08.897Z,109504
2018-07-04T12:30:11.181Z,103616
2018-07-04T12:31:13.271Z,104256
2018-07-04T12:32:15.447Z,119360
2018-07-04T12:33:17.523Z,128576
2018-07-04T12:34:19.788Z,124736
2018-07-04T12:35:22.196Z,117504
2018-07-04T12:36:24.297Z,112416
2018-07-04T12:37:26.398Z,115840
2018-07-04T12:38:28.961Z,117568
2018-07-04T12:39:31.768Z,118080
2018-07-04T12:40:34.298Z,117984
2018-07-04T12:41:36.732Z,118400
2018-07-04T12:42:38.845Z,120768
2018-07-04T12:43:41.017Z,125984
2018-07-04T12:44:43.729Z,115776
2018-07-04T12:45:46.264Z,103200
2018-07-04T12:46:49.183Z,101376
2018-07-04T12:47:51.595Z,106176
2018-07-04T12:48:54.201Z,104096
2018-07-04T12:49:56.387Z,106368
2018-07-04T12:50:58.506Z,108416
2018-07-04T12:52:00.830Z,110528
2018-07-04T12:53:03.260Z,114272
2018-07-04T12:54:05.607Z,118976
2018-07-04T12:55:09.030Z,121312
2018-07-04T12:56:11.436Z,123456
2018-07-04T12:57:13.566Z,125120
2018-07-04T12:58:15.592Z,114592
2018-07-04T12:59:17.987Z,101696
2018-07-04T13:00:20.099Z,96928
2018-07-04T13:01:22.179Z,106208
2018-07-04T13:02:24.384Z,111104
2018-07-04T13:03:26.735Z,110304
2018-07-04T13:04:28.821Z,113888
2018-07-04T13:05:30.927Z,111872
2018-07-04T13:06:33.214Z,105472
2018-07-04T13:07:35.383Z,101536
2018-07-04T13:08:37.928Z,100384
2018-07-04T13:09:40.151Z,99296
2018-07-04T13:10:42.473Z,102368
2018-07-04T13:11:45.111Z,96224
2018-07-04T13:12:47.503Z,92608
2018-07-04T13:13:50.001Z,94080
2018-07-04T13:14:53.115Z,93856
2018-07-04T13:15:55.685Z,98784
2018-07-04T13:16:57.989Z,112128
2018-07-04T13:18:00.333Z,120608
2018-07-04T13:19:02.725Z,111840
2018-07-04T13:20:05.081Z,98080
2018-07-04T13:21:07.423Z,98208
2018-07-04T13:22:09.723Z,100256
2018-07-04T13:23:12.304Z,100256
2018-07-04T13:24:14.598Z,102336
2018-07-04T13:25:16.665Z,98368
2018-07-04T13:26:18.730Z,98848
2018-07-04T13:27:20.863Z,101280
2018-07-04T13:28:22.954Z,96416
2018-07-04T13:29:25.390Z,93760
2018-07-04T13:30:27.525Z,97184
2018-07-04T13:31:29.639Z,96704
2018-07-04T13:32:31.782Z,93376
2018-07-04T13:33:33.847Z,95488
2018-07-04T13:34:35.972Z,95360
2018-07-04T13:35:38.787Z,102880
2018-07-04T13:36:40.889Z,119104
2018-07-04T13:37:43.312Z,121632
2018-07-04T13:38:46.096Z,117344
2018-07-04T13:39:48.192Z,117824
2018-07-04T13:40:50.433Z,111392
2018-07-04T13:41:52.525Z,109920
2018-07-04T13:42:55.118Z,114624
2018-07-04T13:43:57.261Z,111264
2018-07-04T13:44:59.384Z,104320
2018-07-04T13:46:01.482Z,97408